Time;durP1;ratioP1;P1;durP2;ratioP2;P2;SDS_P1;SDS_P2;PMS_P1;PMS_P2;Temp;Humidity;BMP_temperature;BMP_pressure;BME280_temperature;BME280_humidity;BME280_pressure;Samples;Min_cycle;Max_cycle;Signal;HPM_P1;HPM_P2
2023/04/22 00:00:16;;;;;;;;;;;;;;;13.61;61.45;97560.09;4863670;29;19991;-64
2023/04/22 00:02:42;;;;;;;;;;;;;;;13.53;60.02;97556.34;4877586;29;19912;-64
2023/04/22 00:05:07;;;;;;;;;;;;;;;13.53;60.83;97564.25;4878220;29;19916;-64
2023/04/22 00:07:33;;;;;;;;;;;;;;;13.49;60.94;97562.03;4878258;29;19920;-64
2023/04/22 00:09:58;;;;;;;;;;;;;;;13.51;61.03;97560.09;4863034;29;19919;-64
2023/04/22 00:12:23;;;;;;;;;;;;;;;13.45;60.35;97561.47;4877364;29;19927;-64
2023/04/22 00:14:48;;;;;;;;;;;;;;;13.46;60.15;97562.31;4878024;29;20059;-64
2023/04/22 00:17:14;;;;;;;;;;;;;;;13.49;61.62;97567.31;4876789;29;19927;-64
2023/04/22 00:19:39;;;;;;;;;;;;;;;13.47;60.61;97559.53;4876544;29;19916;-64
2023/04/22 00:22:05;;;;;;;;;;;;;;;13.47;61.12;97553.44;4876954;29;19927;-65
2023/04/22 00:24:30;;;;;;;;;;;;;;;13.47;61.33;97553.44;4859647;29;19939;-64
2023/04/22 00:26:55;;;;;;;;;;;;;;;13.42;60.75;97561.78;4877865;29;19923;-64
2023/04/22 00:29:20;;;;;;;;;;;;;;;13.35;60.33;97562.44;4876872;29;20402;-65
2023/04/22 00:31:45;;;;;;;;;;;;;;;13.34;61.22;97571.31;4876701;29;20398;-65
2023/04/22 00:34:11;;;;;;;;;;;;;;;13.28;61.12;97555.09;4873199;29;20304;-64
2023/04/22 00:36:36;;;;;;;;;;;;;;;13.25;61.62;97551.91;4877741;29;20006;-64
2023/04/22 00:39:01;;;;;;;;;;;;;;;13.30;62.69;97554.97;4877606;29;19959;-64
2023/04/22 00:41:26;;;;;;;;;;;;;;;13.30;62.00;97562.84;4875777;29;20026;-64
2023/04/22 00:43:52;;;;;;;;;;;;;;;13.26;62.22;97556.22;4876891;29;19976;-64
2023/04/22 00:46:17;;;;;;;;;;;;;;;13.23;62.03;97566.97;4861063;29;19916;-64
2023/04/22 00:48:42;;;;;;;;;;;;;;;13.19;62.26;97563.78;4861118;29;19920;-64
2023/04/22 00:51:07;;;;;;;;;;;;;;;13.23;62.47;97566.97;4876288;29;19923;-64
2023/04/22 00:53:33;;;;;;;;;;;;;;;13.15;61.49;97564.22;4875998;29;19919;-64
2023/04/22 00:55:58;;;;;;;;;;;;;;;13.18;62.22;97567.41;4877745;29;19916;-64
2023/04/22 00:58:24;;;;;;;;;;;;;;;13.19;62.82;97563.78;4877501;29;19927;-65
2023/04/22 01:00:50;;;;;;;;;;;;;;;13.22;62.74;97560.88;4866419;29;19915;-64
2023/04/22 01:03:15;;;;;;;;;;;;;;;13.22;62.44;97562.69;4876731;29;19975;-64
2023/04/22 01:05:40;;;;;;;;;;;;;;;13.21;63.04;97563.63;4860993;29;19915;-64
2023/04/22 01:08:06;;;;;;;;;;;;;;;13.15;61.73;97566.84;4876230;29;20029;-64
2023/04/22 01:10:31;;;;;;;;;;;;;;;13.14;62.73;97563.34;4871700;29;19915;-64
2023/04/22 01:12:56;;;;;;;;;;;;;;;13.10;63.07;97561.16;4876595;29;19919;-64
2023/04/22 01:15:21;;;;;;;;;;;;;;;13.04;62.96;97547.56;4875776;29;19926;-64
2023/04/22 01:17:46;;;;;;;;;;;;;;;13.10;62.69;97556.72;4861081;29;19975;-65
2023/04/22 01:20:12;;;;;;;;;;;;;;;13.04;62.85;97558.09;4876263;29;20351;-64
2023/04/22 01:22:41;;;;;;;;;;;;;;;13.01;63.24;97558.38;4859898;29;19924;-64
2023/04/22 01:25:07;;;;;;;;;;;;;;;12.97;62.52;97562.25;4877447;29;19972;-64
2023/04/22 01:27:32;;;;;;;;;;;;;;;12.84;60.86;97566.94;4873841;29;19920;-64
2023/04/22 01:29:57;;;;;;;;;;;;;;;12.66;63.55;97564.06;4878782;29;19919;-64
2023/04/22 01:32:23;;;;;;;;;;;;;;;12.66;62.93;97561.44;4880745;29;19981;-64
2023/04/22 01:34:48;;;;;;;;;;;;;;;12.75;63.29;97558.03;4879993;29;20282;-64
2023/04/22 01:37:13;;;;;;;;;;;;;;;12.82;63.93;97553.88;4880573;29;19999;-64
2023/04/22 01:39:38;;;;;;;;;;;;;;;12.80;62.85;97560.25;4879716;29;19920;-64
2023/04/22 01:42:03;;;;;;;;;;;;;;;12.86;64.55;97554.44;4865276;29;20398;-64
2023/04/22 01:44:29;;;;;;;;;;;;;;;12.89;63.92;97553.34;4863065;29;20477;-65
2023/04/22 01:46:54;;;;;;;;;;;;;;;12.86;63.34;97559.72;4879612;29;20433;-64
2023/04/22 01:49:19;;;;;;;;;;;;;;;12.73;62.88;97551.22;4879280;29;19927;-64
2023/04/22 01:51:45;;;;;;;;;;;;;;;12.75;63.63;97555.38;4878184;29;19931;-64
2023/04/22 01:54:10;;;;;;;;;;;;;;;12.69;63.76;97560.34;4880094;29;19924;-64
2023/04/22 01:56:35;;;;;;;;;;;;;;;12.64;63.21;97568.66;4863011;29;19928;-64
2023/04/22 01:59:00;;;;;;;;;;;;;;;12.72;64.28;97570.63;4877996;29;20469;-64
2023/04/22 02:01:26;;;;;;;;;;;;;;;12.69;63.27;97569.06;4879336;29;19916;-64
2023/04/22 02:03:51;;;;;;;;;;;;;;;12.69;64.14;97576.13;4880326;29;19935;-64
2023/04/22 02:06:16;;;;;;;;;;;;;;;12.64;63.88;97576.56;4871562;29;19974;-64
2023/04/22 02:08:41;;;;;;;;;;;;;;;12.62;63.27;97575.84;4878901;29;19919;-64
2023/04/22 02:11:06;;;;;;;;;;;;;;;12.54;62.84;97576.50;4879846;29;20014;-64
2023/04/22 02:13:38;;;;;;;;;;;;;;;12.60;64.57;97577.78;4863537;29;20006;-64
2023/04/22 02:16:04;;;;;;;;;;;;;;;12.58;64.36;97575.28;4862574;29;20413;-64
2023/04/22 02:18:29;;;;;;;;;;;;;;;12.67;65.12;97575.47;4875834;29;19924;-64
2023/04/22 02:20:54;;;;;;;;;;;;;;;12.71;64.45;97574.22;4862709;29;19924;-64
2023/04/22 02:23:19;;;;;;;;;;;;;;;12.72;64.94;97581.13;4879897;29;19924;-64
2023/04/22 02:25:49;;;;;;;;;;;;;;;12.74;65.58;97576.59;4879189;29;19920;-64
2023/04/22 02:28:14;;;;;;;;;;;;;;;12.73;65.04;97580.16;4879626;29;20405;-64
2023/04/22 02:30:39;;;;;;;;;;;;;;;12.69;63.67;97576.13;4878736;29;19920;-64
2023/04/22 02:33:05;;;;;;;;;;;;;;;12.69;63.95;97573.50;4879831;29;19926;-64
2023/04/22 02:35:30;;;;;;;;;;;;;;;12.69;64.88;97578.78;4877945;29;19963;-63
2023/04/22 02:37:55;;;;;;;;;;;;;;;12.64;64.75;97581.81;4878855;29;19987;-64
2023/04/22 02:40:20;;;;;;;;;;;;;;;12.62;64.37;97580.28;4877653;29;19923;-63
2023/04/22 02:42:47;;;;;;;;;;;;;;;12.64;65.17;97581.81;4879808;29;19923;-63
2023/04/22 02:45:12;;;;;;;;;;;;;;;12.64;65.07;97591.50;4877867;29;19999;-63
2023/04/22 02:47:37;;;;;;;;;;;;;;;12.55;64.14;97587.88;4879773;29;20022;-64
2023/04/22 02:50:03;;;;;;;;;;;;;;;12.57;64.22;97589.41;4878174;29;19968;-64
2023/04/22 02:52:28;;;;;;;;;;;;;;;12.58;65.38;97588.44;4878578;29;19919;-64
2023/04/22 02:54:53;;;;;;;;;;;;;;;12.55;65.50;97588.69;4877830;29;20050;-64
2023/04/22 02:57:19;;;;;;;;;;;;;;;12.57;65.33;97588.56;4878428;29;20010;-64
2023/04/22 02:59:44;;;;;;;;;;;;;;;12.54;65.39;97594.94;4878574;29;20014;-64
2023/04/22 03:02:10;;;;;;;;;;;;;;;12.56;65.49;97584.28;4878274;29;19919;-64
2023/04/22 03:04:35;;;;;;;;;;;;;;;12.56;65.31;97587.75;4879429;29;19919;-64
2023/04/22 03:07:00;;;;;;;;;;;;;;;12.55;65.26;97588.69;4878159;29;19931;-64
2023/04/22 03:09:26;;;;;;;;;;;;;;;12.51;64.44;97586.47;4872290;29;19963;-64
2023/04/22 03:11:51;;;;;;;;;;;;;;;12.56;65.65;97587.75;4878230;29;19992;-64
2023/04/22 03:14:16;;;;;;;;;;;;;;;12.55;65.57;97588.69;4878936;29;19964;-64
2023/04/22 03:16:41;;;;;;;;;;;;;;;12.55;65.66;97586.06;4878319;29;20391;-64
2023/04/22 03:19:06;;;;;;;;;;;;;;;12.50;64.75;97580.38;4880801;29;20402;-64
2023/04/22 03:21:32;;;;;;;;;;;;;;;12.48;65.06;97587.56;4877727;29;20401;-64
2023/04/22 03:23:57;;;;;;;;;;;;;;;12.46;65.10;97586.88;4877987;29;20313;-65
2023/04/22 03:26:22;;;;;;;;;;;;;;;12.45;65.27;97587.81;4860599;29;19955;-65
2023/04/22 03:28:48;;;;;;;;;;;;;;;12.40;64.84;97584.75;4878781;29;19920;-64
2023/04/22 03:31:13;;;;;;;;;;;;;;;12.38;64.90;97581.41;4877799;29;20028;-65
2023/04/22 03:33:38;;;;;;;;;;;;;;;12.42;65.42;97574.97;4879780;29;20011;-63
2023/04/22 03:36:03;;;;;;;;;;;;;;;12.39;65.52;97572.59;4877806;29;20071;-63
2023/04/22 03:38:29;;;;;;;;;;;;;;;12.37;65.43;97584.19;4878672;29;20010;-64
2023/04/22 03:40:54;;;;;;;;;;;;;;;12.39;65.68;97577.00;4878769;29;19920;-63
2023/04/22 03:43:20;;;;;;;;;;;;;;;12.33;65.69;97581.00;4862443;29;19920;-63
2023/04/22 03:45:45;;;;;;;;;;;;;;;12.33;66.02;97584.47;4877868;29;20416;-63
2023/04/22 03:48:10;;;;;;;;;;;;;;;12.36;66.31;97583.38;4861511;29;20391;-63
2023/04/22 03:50:35;;;;;;;;;;;;;;;12.29;65.33;97579.59;4877728;29;20006;-63
2023/04/22 03:53:01;;;;;;;;;;;;;;;12.16;65.08;97577.19;4877372;29;20018;-62
2023/04/22 03:55:26;;;;;;;;;;;;;;;11.98;65.83;97579.56;4877698;29;20003;-63
2023/04/22 03:57:51;;;;;;;;;;;;;;;11.91;65.26;97582.84;4878636;29;19916;-63
2023/04/22 04:00:16;;;;;;;;;;;;;;;11.99;65.82;97575.13;4880435;29;19927;-63
2023/04/22 04:02:42;;;;;;;;;;;;;;;12.08;66.31;97571.75;4886814;29;19919;-64
2023/04/22 04:05:09;;;;;;;;;;;;;;;12.08;66.45;97571.75;4857541;29;19927;-64
2023/04/22 04:07:35;;;;;;;;;;;;;;;12.09;66.72;97576.84;4883962;29;19920;-65
2023/04/22 04:10:00;;;;;;;;;;;;;;;12.11;66.50;97572.31;4891432;29;19927;-65
2023/04/22 04:12:25;;;;;;;;;;;;;;;12.06;66.40;97576.28;4877071;29;19920;-65
2023/04/22 04:14:50;;;;;;;;;;;;;;;12.06;65.69;97571.84;4880427;29;19920;-65
2023/04/22 04:17:15;;;;;;;;;;;;;;;12.06;64.95;97571.84;4873524;29;19926;-65
2023/04/22 04:19:41;;;;;;;;;;;;;;;12.08;66.02;97572.56;4884750;29;19920;-66
2023/04/22 04:22:06;;;;;;;;;;;;;;;12.10;67.32;97569.81;4877198;29;19974;-65
2023/04/22 04:24:31;;;;;;;;;;;;;;;12.23;66.49;97569.59;4878342;29;19998;-64
2023/04/22 04:26:56;;;;;;;;;;;;;;;12.27;66.23;97571.81;4875646;29;20018;-64
2023/04/22 04:29:22;;;;;;;;;;;;;;;12.30;66.44;97568.94;4860704;29;20003;-64
2023/04/22 04:31:47;;;;;;;;;;;;;;;12.35;65.88;97573.78;4877196;29;19962;-65
2023/04/22 04:34:13;;;;;;;;;;;;;;;12.38;65.97;97568.28;4871575;29;19916;-64
2023/04/22 04:36:38;;;;;;;;;;;;;;;12.42;65.17;97561.81;4878916;29;19924;-64
2023/04/22 04:39:04;;;;;;;;;;;;;;;12.56;64.64;97569.34;4863040;29;20031;-64
2023/04/22 04:41:30;;;;;;;;;;;;;;;12.55;64.58;97562.38;4863858;29;19928;-63
2023/04/22 04:43:55;;;;;;;;;;;;;;;12.54;64.55;97565.16;4876259;29;19924;-63
2023/04/22 04:46:21;;;;;;;;;;;;;;;12.53;63.34;97569.59;4876504;29;19924;-63
2023/04/22 04:48:47;;;;;;;;;;;;;;;12.58;64.12;97577.91;4876887;29;19930;-64
2023/04/22 04:51:13;;;;;;;;;;;;;;;12.61;64.38;97576.00;4871345;29;19979;-64
2023/04/22 04:53:39;;;;;;;;;;;;;;;12.74;63.97;97571.31;4877746;29;20393;-64
2023/04/22 04:56:04;;;;;;;;;;;;;;;13.07;63.49;97576.25;4875230;29;19967;-64
2023/04/22 04:58:29;;;;;;;;;;;;;;;13.28;62.59;97575.31;4879031;29;19939;-64
2023/04/22 05:00:54;;;;;;;;;;;;;;;13.50;61.41;97575.06;4878849;29;19927;-64
2023/04/22 05:03:20;;;;;;;;;;;;;;;13.52;61.00;97567.88;4877953;29;19923;-64
2023/04/22 05:05:47;;;;;;;;;;;;;;;13.59;61.07;97583.09;4876834;29;19928;-64
2023/04/22 05:08:12;;;;;;;;;;;;;;;13.63;60.85;97581.88;4878942;29;19972;-63
2023/04/22 05:10:38;;;;;;;;;;;;;;;13.67;60.36;97585.88;4880480;29;20294;-63
2023/04/22 05:13:03;;;;;;;;;;;;;;;13.74;60.03;97587.00;4879667;29;20346;-63
2023/04/22 05:15:28;;;;;;;;;;;;;;;13.82;59.74;97592.38;4880315;29;19920;-64
2023/04/22 05:17:53;;;;;;;;;;;;;;;13.86;59.43;97601.66;4868946;29;19916;-65
2023/04/22 05:20:19;;;;;;;;;;;;;;;13.92;58.72;97592.38;4879806;29;19923;-64
2023/04/22 05:22:44;;;;;;;;;;;;;;;13.95;59.13;97594.72;4859469;29;19920;-65
2023/04/22 05:25:10;;;;;;;;;;;;;;;13.98;58.85;97594.44;4875004;29;19936;-64
2023/04/22 05:27:35;;;;;;;;;;;;;;;14.01;58.70;97592.38;4881759;29;19934;-63
2023/04/22 05:30:00;;;;;;;;;;;;;;;14.06;58.73;97591.09;4880568;29;19922;-65
2023/04/22 05:32:25;;;;;;;;;;;;;;;14.11;58.38;97592.34;4878928;29;20007;-65
2023/04/22 05:34:51;;;;;;;;;;;;;;;14.19;58.01;97596.91;4880528;29;19966;-64
2023/04/22 05:37:16;;;;;;;;;;;;;;;14.24;57.84;97597.28;4880532;29;20366;-63
2023/04/22 05:39:41;;;;;;;;;;;;;;;14.22;57.52;97597.44;4880233;29;19943;-64
2023/04/22 05:42:07;;;;;;;;;;;;;;;14.24;57.19;97594.66;4878648;29;19963;-64
2023/04/22 05:44:33;;;;;;;;;;;;;;;14.31;57.37;97597.56;4879906;29;19916;-65
2023/04/22 05:46:58;;;;;;;;;;;;;;;14.32;57.15;97602.72;4879604;29;19923;-66
2023/04/22 05:49:23;;;;;;;;;;;;;;;14.38;57.14;97599.50;4879935;29;20489;-63
2023/04/22 05:51:49;;;;;;;;;;;;;;;14.04;55.26;97604.44;4880131;29;20202;-62
2023/04/22 05:54:14;;;;;;;;;;;;;;;13.71;55.59;97608.34;4875812;29;19977;-61
2023/04/22 05:56:39;;;;;;;;;;;;;;;13.61;56.36;97612.78;4878888;29;19975;-62
2023/04/22 05:59:05;;;;;;;;;;;;;;;13.52;56.90;97612.66;4895413;29;19922;-62
2023/04/22 06:01:30;;;;;;;;;;;;;;;13.44;57.93;97606.41;4877527;29;19987;-63
2023/04/22 06:03:56;;;;;;;;;;;;;;;13.35;56.89;97608.06;4891430;29;20013;-63
2023/04/22 06:06:21;;;;;;;;;;;;;;;13.38;57.26;97609.56;4869237;29;19920;-63
2023/04/22 06:08:46;;;;;;;;;;;;;;;13.42;57.42;97608.31;4891913;29;20306;-64
2023/04/22 06:11:11;;;;;;;;;;;;;;;13.49;57.66;97610.28;4885794;29;20345;-63
2023/04/22 06:13:36;;;;;;;;;;;;;;;13.55;57.35;97608.88;4888560;29;19919;-63
2023/04/22 06:16:03;;;;;;;;;;;;;;;13.65;57.92;97601.81;4882440;29;19931;-63
2023/04/22 06:18:29;;;;;;;;;;;;;;;14.16;57.92;97610.38;4898411;29;19971;-62
2023/04/22 06:20:54;;;;;;;;;;;;;;;14.00;54.86;97606.53;4893941;29;19920;-63
2023/04/22 06:23:19;;;;;;;;;;;;;;;13.81;54.18;97606.53;4893486;29;19920;-62
2023/04/22 06:25:46;;;;;;;;;;;;;;;13.75;54.23;97604.47;4881861;29;20305;-62
2023/04/22 06:28:11;;;;;;;;;;;;;;;13.82;54.58;97618.75;4895276;29;20094;-63
2023/04/22 06:30:36;;;;;;;;;;;;;;;13.72;54.59;97615.28;4898443;29;20006;-64
2023/04/22 06:33:01;;;;;;;;;;;;;;;13.82;54.23;97615.28;4880094;29;20015;-64
2023/04/22 06:35:27;;;;;;;;;;;;;;;13.86;53.49;97619.28;4883758;29;19955;-64
2023/04/22 06:37:52;;;;;;;;;;;;;;;13.87;52.91;97616.53;4892017;29;19920;-64
2023/04/22 06:40:17;;;;;;;;;;;;;;;13.94;52.83;97617.63;4897719;29;19915;-63
2023/04/22 06:42:42;;;;;;;;;;;;;;;14.01;53.33;97613.47;4884796;29;20038;-65
2023/04/22 06:45:11;;;;;;;;;;;;;;;14.04;52.76;97616.78;4879853;29;19919;-64
2023/04/22 06:47:36;;;;;;;;;;;;;;;14.17;53.27;97615.50;4890483;29;20468;-65
2023/04/22 06:50:01;;;;;;;;;;;;;;;14.25;52.85;97612.16;4874954;29;20019;-65
2023/04/22 06:52:27;;;;;;;;;;;;;;;14.35;53.13;97615.63;4892037;29;20738;-64
2023/04/22 06:54:52;;;;;;;;;;;;;;;14.50;52.57;97610.72;4882826;29;20433;-64
2023/04/22 06:57:17;;;;;;;;;;;;;;;14.63;52.31;97608.59;4872637;29;19920;-64
